sensor_id;sensor_type;location;lat;lon;timestamp;P1;durP1;ratioP1;P2;durP2;ratioP2
1995;SDS011;38556;47.068;15.408;2023-06-14T00:01:58;19.13;;;17.90;;
1995;SDS011;38556;47.068;15.408;2023-06-14T00:04:25;18.87;;;17.77;;
1995;SDS011;38556;47.068;15.408;2023-06-14T00:06:53;19.03;;;17.93;;
1995;SDS011;38556;47.068;15.408;2023-06-14T00:09:22;18.50;;;17.40;;
1995;SDS011;38556;47.068;15.408;2023-06-14T00:11:49;19.90;;;18.73;;
1995;SDS011;38556;47.068;15.408;2023-06-14T00:14:18;19.30;;;18.20;;
1995;SDS011;38556;47.068;15.408;2023-06-14T00:16:45;19.63;;;18.43;;
1995;SDS011;38556;47.068;15.408;2023-06-14T00:19:13;19.67;;;18.57;;
1995;SDS011;38556;47.068;15.408;2023-06-14T00:21:41;18.97;;;17.80;;
1995;SDS011;38556;47.068;15.408;2023-06-14T00:24:08;18.20;;;17.13;;
1995;SDS011;38556;47.068;15.408;2023-06-14T00:26:36;19.63;;;18.37;;
1995;SDS011;38556;47.068;15.408;2023-06-14T00:29:03;20.33;;;19.03;;
1995;SDS011;38556;47.068;15.408;2023-06-14T00:31:31;19.53;;;18.33;;
1995;SDS011;38556;47.068;15.408;2023-06-14T00:33:59;19.30;;;18.20;;
1995;SDS011;38556;47.068;15.408;2023-06-14T00:36:26;18.80;;;17.90;;
1995;SDS011;38556;47.068;15.408;2023-06-14T00:38:53;18.90;;;17.90;;
1995;SDS011;38556;47.068;15.408;2023-06-14T00:41:20;18.93;;;17.83;;
1995;SDS011;38556;47.068;15.408;2023-06-14T00:43:47;18.70;;;17.70;;
1995;SDS011;38556;47.068;15.408;2023-06-14T00:46:14;19.03;;;17.93;;
1995;SDS011;38556;47.068;15.408;2023-06-14T00:48:43;19.93;;;18.33;;
1995;SDS011;38556;47.068;15.408;2023-06-14T00:51:11;18.20;;;17.30;;
1995;SDS011;38556;47.068;15.408;2023-06-14T00:53:38;19.47;;;18.37;;
1995;SDS011;38556;47.068;15.408;2023-06-14T00:56:11;19.00;;;17.90;;
1995;SDS011;38556;47.068;15.408;2023-06-14T00:58:40;18.43;;;17.33;;
1995;SDS011;38556;47.068;15.408;2023-06-14T01:01:08;18.30;;;17.20;;
1995;SDS011;38556;47.068;15.408;2023-06-14T01:03:35;19.63;;;18.43;;
1995;SDS011;38556;47.068;15.408;2023-06-14T01:06:05;19.20;;;18.00;;
1995;SDS011;38556;47.068;15.408;2023-06-14T01:08:51;19.33;;;18.30;;
1995;SDS011;38556;47.068;15.408;2023-06-14T01:11:28;18.70;;;17.60;;
1995;SDS011;38556;47.068;15.408;2023-06-14T01:13:59;18.53;;;17.53;;
1995;SDS011;38556;47.068;15.408;2023-06-14T01:16:28;18.50;;;17.50;;
1995;SDS011;38556;47.068;15.408;2023-06-14T01:18:57;18.80;;;17.70;;
1995;SDS011;38556;47.068;15.408;2023-06-14T01:21:26;19.07;;;18.07;;
1995;SDS011;38556;47.068;15.408;2023-06-14T01:23:55;18.27;;;17.37;;
1995;SDS011;38556;47.068;15.408;2023-06-14T01:26:22;18.97;;;17.93;;
1995;SDS011;38556;47.068;15.408;2023-06-14T01:28:52;19.23;;;18.03;;
1995;SDS011;38556;47.068;15.408;2023-06-14T01:31:23;20.10;;;18.90;;
1995;SDS011;38556;47.068;15.408;2023-06-14T01:33:53;19.83;;;18.73;;
1995;SDS011;38556;47.068;15.408;2023-06-14T01:36:20;18.60;;;17.50;;
1995;SDS011;38556;47.068;15.408;2023-06-14T01:38:48;19.37;;;18.27;;
1995;SDS011;38556;47.068;15.408;2023-06-14T01:41:19;18.60;;;17.70;;
1995;SDS011;38556;47.068;15.408;2023-06-14T01:43:48;19.57;;;18.37;;
1995;SDS011;38556;47.068;15.408;2023-06-14T01:46:17;19.00;;;17.93;;
1995;SDS011;38556;47.068;15.408;2023-06-14T01:48:45;18.20;;;17.30;;
1995;SDS011;38556;47.068;15.408;2023-06-14T01:51:13;18.40;;;17.20;;
1995;SDS011;38556;47.068;15.408;2023-06-14T01:53:40;19.13;;;18.00;;
1995;SDS011;38556;47.068;15.408;2023-06-14T01:56:07;18.87;;;17.70;;
1995;SDS011;38556;47.068;15.408;2023-06-14T01:58:36;19.23;;;18.13;;
1995;SDS011;38556;47.068;15.408;2023-06-14T02:01:04;19.63;;;18.53;;
1995;SDS011;38556;47.068;15.408;2023-06-14T02:03:32;19.27;;;18.17;;
1995;SDS011;38556;47.068;15.408;2023-06-14T02:06:00;19.53;;;18.40;;
1995;SDS011;38556;47.068;15.408;2023-06-14T02:08:27;19.42;;;18.13;;
1995;SDS011;38556;47.068;15.408;2023-06-14T02:10:54;19.10;;;18.10;;
1995;SDS011;38556;47.068;15.408;2023-06-14T02:13:21;19.50;;;18.40;;
1995;SDS011;38556;47.068;15.408;2023-06-14T02:15:50;20.75;;;19.40;;
1995;SDS011;38556;47.068;15.408;2023-06-14T02:18:19;20.15;;;18.95;;
1995;SDS011;38556;47.068;15.408;2023-06-14T02:20:47;19.23;;;18.23;;
1995;SDS011;38556;47.068;15.408;2023-06-14T02:23:14;19.35;;;18.25;;
1995;SDS011;38556;47.068;15.408;2023-06-14T02:25:41;19.40;;;18.40;;
1995;SDS011;38556;47.068;15.408;2023-06-14T02:28:10;19.97;;;18.67;;
1995;SDS011;38556;47.068;15.408;2023-06-14T02:30:37;19.80;;;18.80;;
1995;SDS011;38556;47.068;15.408;2023-06-14T02:33:07;20.30;;;18.92;;
1995;SDS011;38556;47.068;15.408;2023-06-14T02:35:38;20.90;;;19.53;;
1995;SDS011;38556;47.068;15.408;2023-06-14T02:38:05;21.45;;;20.05;;
1995;SDS011;38556;47.068;15.408;2023-06-14T02:40:32;19.10;;;18.10;;
1995;SDS011;38556;47.068;15.408;2023-06-14T02:42:59;19.67;;;18.67;;
1995;SDS011;38556;47.068;15.408;2023-06-14T02:45:27;19.60;;;18.50;;
1995;SDS011;38556;47.068;15.408;2023-06-14T02:47:54;19.50;;;18.47;;
1995;SDS011;38556;47.068;15.408;2023-06-14T02:50:23;20.07;;;18.77;;
1995;SDS011;38556;47.068;15.408;2023-06-14T02:52:50;20.30;;;19.10;;
1995;SDS011;38556;47.068;15.408;2023-06-14T02:55:21;20.10;;;19.00;;
1995;SDS011;38556;47.068;15.408;2023-06-14T02:57:48;20.30;;;19.30;;
1995;SDS011;38556;47.068;15.408;2023-06-14T03:00:16;21.80;;;20.20;;
1995;SDS011;38556;47.068;15.408;2023-06-14T03:02:45;20.37;;;19.17;;
1995;SDS011;38556;47.068;15.408;2023-06-14T03:05:12;20.30;;;19.10;;
1995;SDS011;38556;47.068;15.408;2023-06-14T03:07:40;21.00;;;19.67;;
1995;SDS011;38556;47.068;15.408;2023-06-14T03:10:11;20.20;;;19.07;;
1995;SDS011;38556;47.068;15.408;2023-06-14T03:12:38;19.97;;;18.87;;
1995;SDS011;38556;47.068;15.408;2023-06-14T03:15:05;20.43;;;19.33;;
1995;SDS011;38556;47.068;15.408;2023-06-14T03:17:35;21.07;;;19.87;;
1995;SDS011;38556;47.068;15.408;2023-06-14T03:20:04;21.03;;;19.63;;
1995;SDS011;38556;47.068;15.408;2023-06-14T03:22:34;21.13;;;19.87;;
1995;SDS011;38556;47.068;15.408;2023-06-14T03:25:03;20.83;;;19.67;;
1995;SDS011;38556;47.068;15.408;2023-06-14T03:27:30;19.17;;;18.13;;
1995;SDS011;38556;47.068;15.408;2023-06-14T03:29:58;20.37;;;19.27;;
1995;SDS011;38556;47.068;15.408;2023-06-14T03:32:25;19.40;;;18.40;;
1995;SDS011;38556;47.068;15.408;2023-06-14T03:34:52;20.73;;;19.53;;
1995;SDS011;38556;47.068;15.408;2023-06-14T03:37:21;19.88;;;18.63;;
1995;SDS011;38556;47.068;15.408;2023-06-14T03:39:48;20.70;;;19.33;;
1995;SDS011;38556;47.068;15.408;2023-06-14T03:42:17;20.38;;;18.92;;
1995;SDS011;38556;47.068;15.408;2023-06-14T03:44:44;20.25;;;19.25;;
1995;SDS011;38556;47.068;15.408;2023-06-14T03:47:11;19.25;;;18.15;;
1995;SDS011;38556;47.068;15.408;2023-06-14T03:49:38;19.90;;;18.60;;
1995;SDS011;38556;47.068;15.408;2023-06-14T03:52:06;20.17;;;19.10;;
1995;SDS011;38556;47.068;15.408;2023-06-14T03:54:33;20.50;;;19.20;;
1995;SDS011;38556;47.068;15.408;2023-06-14T03:57:01;20.70;;;19.35;;
1995;SDS011;38556;47.068;15.408;2023-06-14T03:59:30;20.10;;;18.93;;
1995;SDS011;38556;47.068;15.408;2023-06-14T04:01:57;20.85;;;19.55;;
1995;SDS011;38556;47.068;15.408;2023-06-14T04:04:24;20.25;;;19.25;;
1995;SDS011;38556;47.068;15.408;2023-06-14T04:06:54;21.27;;;20.13;;
1995;SDS011;38556;47.068;15.408;2023-06-14T04:09:22;22.17;;;20.43;;
1995;SDS011;38556;47.068;15.408;2023-06-14T04:11:50;21.77;;;20.57;;
1995;SDS011;38556;47.068;15.408;2023-06-14T04:14:18;22.25;;;20.70;;
1995;SDS011;38556;47.068;15.408;2023-06-14T04:16:47;21.53;;;20.30;;
1995;SDS011;38556;47.068;15.408;2023-06-14T04:19:15;20.93;;;19.87;;
1995;SDS011;38556;47.068;15.408;2023-06-14T04:21:43;20.77;;;19.67;;
1995;SDS011;38556;47.068;15.408;2023-06-14T04:24:10;20.90;;;19.80;;
1995;SDS011;38556;47.068;15.408;2023-06-14T04:26:39;20.87;;;19.77;;
1995;SDS011;38556;47.068;15.408;2023-06-14T04:29:06;22.57;;;21.17;;
1995;SDS011;38556;47.068;15.408;2023-06-14T04:31:34;21.30;;;20.10;;
1995;SDS011;38556;47.068;15.408;2023-06-14T04:34:04;21.63;;;20.00;;
1995;SDS011;38556;47.068;15.408;2023-06-14T04:36:31;22.30;;;20.87;;
1995;SDS011;38556;47.068;15.408;2023-06-14T04:39:02;21.60;;;20.33;;
1995;SDS011;38556;47.068;15.408;2023-06-14T04:41:29;22.03;;;20.73;;
1995;SDS011;38556;47.068;15.408;2023-06-14T04:43:57;21.93;;;20.40;;
1995;SDS011;38556;47.068;15.408;2023-06-14T04:46:27;22.20;;;20.90;;
1995;SDS011;38556;47.068;15.408;2023-06-14T04:48:55;21.37;;;20.17;;
1995;SDS011;38556;47.068;15.408;2023-06-14T04:51:24;20.70;;;19.70;;
1995;SDS011;38556;47.068;15.408;2023-06-14T04:53:55;22.07;;;20.93;;
1995;SDS011;38556;47.068;15.408;2023-06-14T04:56:24;21.70;;;20.60;;
1995;SDS011;38556;47.068;15.408;2023-06-14T04:58:52;21.27;;;19.77;;
1995;SDS011;38556;47.068;15.408;2023-06-14T05:01:20;21.90;;;20.60;;
1995;SDS011;38556;47.068;15.408;2023-06-14T05:03:48;22.10;;;20.80;;
1995;SDS011;38556;47.068;15.408;2023-06-14T05:06:16;21.60;;;20.40;;
1995;SDS011;38556;47.068;15.408;2023-06-14T05:08:45;22.00;;;20.70;;
1995;SDS011;38556;47.068;15.408;2023-06-14T05:11:12;21.10;;;20.10;;
1995;SDS011;38556;47.068;15.408;2023-06-14T05:13:40;23.30;;;21.70;;
1995;SDS011;38556;47.068;15.408;2023-06-14T05:16:07;23.43;;;21.93;;
1995;SDS011;38556;47.068;15.408;2023-06-14T05:18:35;21.67;;;20.47;;
1995;SDS011;38556;47.068;15.408;2023-06-14T05:21:02;22.13;;;20.67;;
1995;SDS011;38556;47.068;15.408;2023-06-14T05:23:31;22.87;;;21.27;;
1995;SDS011;38556;47.068;15.408;2023-06-14T05:25:59;22.83;;;21.07;;
1995;SDS011;38556;47.068;15.408;2023-06-14T05:28:28;21.97;;;20.77;;
1995;SDS011;38556;47.068;15.408;2023-06-14T05:30:56;21.87;;;20.67;;
1995;SDS011;38556;47.068;15.408;2023-06-14T05:33:24;22.40;;;20.67;;
1995;SDS011;38556;47.068;15.408;2023-06-14T05:35:51;20.80;;;19.60;;
1995;SDS011;38556;47.068;15.408;2023-06-14T05:38:18;21.80;;;20.50;;
1995;SDS011;38556;47.068;15.408;2023-06-14T05:40:45;22.63;;;21.23;;
1995;SDS011;38556;47.068;15.408;2023-06-14T05:43:14;21.93;;;20.47;;
1995;SDS011;38556;47.068;15.408;2023-06-14T05:45:41;21.83;;;20.43;;
1995;SDS011;38556;47.068;15.408;2023-06-14T05:48:09;22.10;;;20.90;;
1995;SDS011;38556;47.068;15.408;2023-06-14T05:50:36;22.00;;;20.70;;
1995;SDS011;38556;47.068;15.408;2023-06-14T05:53:04;20.83;;;19.63;;
1995;SDS011;38556;47.068;15.408;2023-06-14T05:55:31;21.47;;;19.93;;
1995;SDS011;38556;47.068;15.408;2023-06-14T05:57:58;21.17;;;19.77;;
1995;SDS011;38556;47.068;15.408;2023-06-14T06:00:27;20.70;;;19.40;;
1995;SDS011;38556;47.068;15.408;2023-06-14T06:02:54;20.07;;;18.87;;
1995;SDS011;38556;47.068;15.408;2023-06-14T06:05:23;21.60;;;20.30;;
1995;SDS011;38556;47.068;15.408;2023-06-14T06:07:50;22.80;;;21.40;;
1995;SDS011;38556;47.068;15.408;2023-06-14T06:10:17;21.50;;;20.30;;
1995;SDS011;38556;47.068;15.408;2023-06-14T06:12:45;21.30;;;20.10;;
1995;SDS011;38556;47.068;15.408;2023-06-14T06:15:13;21.90;;;20.60;;
1995;SDS011;38556;47.068;15.408;2023-06-14T06:17:43;21.40;;;20.20;;
1995;SDS011;38556;47.068;15.408;2023-06-14T06:20:10;21.80;;;20.70;;
1995;SDS011;38556;47.068;15.408;2023-06-14T06:22:38;22.30;;;21.00;;
1995;SDS011;38556;47.068;15.408;2023-06-14T06:25:06;22.80;;;21.27;;
1995;SDS011;38556;47.068;15.408;2023-06-14T06:27:34;23.33;;;21.60;;
1995;SDS011;38556;47.068;15.408;2023-06-14T06:30:03;22.03;;;20.83;;
1995;SDS011;38556;47.068;15.408;2023-06-14T06:32:31;24.00;;;22.60;;
1995;SDS011;38556;47.068;15.408;2023-06-14T06:34:59;23.10;;;21.70;;
1995;SDS011;38556;47.068;15.408;2023-06-14T06:37:27;23.73;;;22.33;;
1995;SDS011;38556;47.068;15.408;2023-06-14T06:39:54;22.30;;;20.90;;
1995;SDS011;38556;47.068;15.408;2023-06-14T06:42:21;20.20;;;19.20;;
1995;SDS011;38556;47.068;15.408;2023-06-14T06:44:49;22.40;;;21.10;;
1995;SDS011;38556;47.068;15.408;2023-06-14T06:47:16;22.53;;;21.27;;
1995;SDS011;38556;47.068;15.408;2023-06-14T06:49:44;24.23;;;22.57;;
1995;SDS011;38556;47.068;15.408;2023-06-14T06:52:13;24.40;;;22.50;;
1995;SDS011;38556;47.068;15.408;2023-06-14T06:54:41;24.00;;;22.50;;
1995;SDS011;38556;47.068;15.408;2023-06-14T06:57:08;23.07;;;21.70;;
1995;SDS011;38556;47.068;15.408;2023-06-14T06:59:36;24.23;;;22.83;;
1995;SDS011;38556;47.068;15.408;2023-06-14T07:02:04;26.67;;;24.87;;
1995;SDS011;38556;47.068;15.408;2023-06-14T07:04:32;24.23;;;22.60;;
1995;SDS011;38556;47.068;15.408;2023-06-14T07:07:00;23.73;;;22.30;;
1995;SDS011;38556;47.068;15.408;2023-06-14T07:09:29;24.20;;;22.73;;
1995;SDS011;38556;47.068;15.408;2023-06-14T07:11:56;22.77;;;21.47;;
1995;SDS011;38556;47.068;15.408;2023-06-14T07:14:23;22.03;;;20.70;;
1995;SDS011;38556;47.068;15.408;2023-06-14T07:16:51;23.07;;;21.57;;
1995;SDS011;38556;47.068;15.408;2023-06-14T07:19:18;23.37;;;21.97;;
1995;SDS011;38556;47.068;15.408;2023-06-14T07:21:46;23.20;;;21.80;;
1995;SDS011;38556;47.068;15.408;2023-06-14T07:24:13;22.37;;;21.07;;
1995;SDS011;38556;47.068;15.408;2023-06-14T07:26:43;22.20;;;21.10;;
1995;SDS011;38556;47.068;15.408;2023-06-14T07:29:10;22.07;;;20.50;;
1995;SDS011;38556;47.068;15.408;2023-06-14T07:31:37;21.80;;;20.60;;
1995;SDS011;38556;47.068;15.408;2023-06-14T07:34:04;21.43;;;20.23;;
1995;SDS011;38556;47.068;15.408;2023-06-14T07:36:32;21.27;;;20.03;;
1995;SDS011;38556;47.068;15.408;2023-06-14T07:38:59;21.77;;;20.57;;
1995;SDS011;38556;47.068;15.408;2023-06-14T07:41:29;21.77;;;20.67;;
1995;SDS011;38556;47.068;15.408;2023-06-14T07:43:57;22.50;;;21.20;;
1995;SDS011;38556;47.068;15.408;2023-06-14T07:46:25;21.90;;;20.50;;
1995;SDS011;38556;47.068;15.408;2023-06-14T07:48:53;20.67;;;19.50;;
1995;SDS011;38556;47.068;15.408;2023-06-14T07:51:20;22.47;;;20.97;;
1995;SDS011;38556;47.068;15.408;2023-06-14T07:53:48;21.30;;;20.10;;
1995;SDS011;38556;47.068;15.408;2023-06-14T07:56:16;21.30;;;20.00;;
1995;SDS011;38556;47.068;15.408;2023-06-14T07:58:43;21.43;;;20.13;;
1995;SDS011;38556;47.068;15.408;2023-06-14T08:01:12;22.30;;;20.87;;
1995;SDS011;38556;47.068;15.408;2023-06-14T08:03:40;21.30;;;20.10;;
1995;SDS011;38556;47.068;15.408;2023-06-14T08:06:07;21.30;;;20.20;;
1995;SDS011;38556;47.068;15.408;2023-06-14T08:08:35;21.80;;;20.60;;
1995;SDS011;38556;47.068;15.408;2023-06-14T08:11:02;22.37;;;21.17;;
1995;SDS011;38556;47.068;15.408;2023-06-14T08:13:30;21.07;;;19.87;;
1995;SDS011;38556;47.068;15.408;2023-06-14T08:15:57;22.10;;;20.90;;
1995;SDS011;38556;47.068;15.408;2023-06-14T08:18:27;22.47;;;21.17;;
1995;SDS011;38556;47.068;15.408;2023-06-14T08:20:56;22.67;;;21.20;;
1995;SDS011;38556;47.068;15.408;2023-06-14T08:23:23;23.60;;;21.97;;
1995;SDS011;38556;47.068;15.408;2023-06-14T08:25:51;21.87;;;20.60;;
1995;SDS011;38556;47.068;15.408;2023-06-14T08:28:18;22.20;;;20.83;;
1995;SDS011;38556;47.068;15.408;2023-06-14T08:30:45;22.10;;;20.80;;
1995;SDS011;38556;47.068;15.408;2023-06-14T08:33:13;20.97;;;19.87;;
1995;SDS011;38556;47.068;15.408;2023-06-14T08:35:41;20.87;;;19.70;;
1995;SDS011;38556;47.068;15.408;2023-06-14T08:38:09;21.97;;;20.67;;
1995;SDS011;38556;47.068;15.408;2023-06-14T08:40:37;21.67;;;20.47;;
1995;SDS011;38556;47.068;15.408;2023-06-14T08:43:05;22.50;;;21.30;;
1995;SDS011;38556;47.068;15.408;2023-06-14T08:45:32;22.53;;;21.33;;
1995;SDS011;38556;47.068;15.408;2023-06-14T08:48:00;22.93;;;21.50;;
1995;SDS011;38556;47.068;15.408;2023-06-14T08:50:28;23.20;;;21.70;;
1995;SDS011;38556;47.068;15.408;2023-06-14T08:52:59;22.30;;;21.00;;
1995;SDS011;38556;47.068;15.408;2023-06-14T08:55:28;23.10;;;21.80;;
1995;SDS011;38556;47.068;15.408;2023-06-14T08:57:56;23.40;;;21.90;;
1995;SDS011;38556;47.068;15.408;2023-06-14T09:00:24;24.43;;;22.73;;
1995;SDS011;38556;47.068;15.408;2023-06-14T09:02:53;24.03;;;22.53;;
1995;SDS011;38556;47.068;15.408;2023-06-14T09:05:23;23.90;;;22.30;;
1995;SDS011;38556;47.068;15.408;2023-06-14T09:07:51;23.70;;;22.30;;
1995;SDS011;38556;47.068;15.408;2023-06-14T09:10:21;22.73;;;21.53;;
1995;SDS011;38556;47.068;15.408;2023-06-14T09:12:51;23.30;;;21.63;;
1995;SDS011;38556;47.068;15.408;2023-06-14T09:15:18;21.77;;;20.67;;
1995;SDS011;38556;47.068;15.408;2023-06-14T09:17:46;23.73;;;22.37;;
1995;SDS011;38556;47.068;15.408;2023-06-14T09:20:13;22.70;;;21.40;;
1995;SDS011;38556;47.068;15.408;2023-06-14T09:22:44;22.93;;;21.50;;
1995;SDS011;38556;47.068;15.408;2023-06-14T09:25:11;22.07;;;20.80;;
1995;SDS011;38556;47.068;15.408;2023-06-14T09:27:42;22.60;;;21.20;;
1995;SDS011;38556;47.068;15.408;2023-06-14T09:30:09;21.90;;;20.50;;
1995;SDS011;38556;47.068;15.408;2023-06-14T09:32:38;23.77;;;22.27;;
1995;SDS011;38556;47.068;15.408;2023-06-14T09:35:06;22.60;;;21.20;;
1995;SDS011;38556;47.068;15.408;2023-06-14T09:37:34;22.30;;;20.90;;
1995;SDS011;38556;47.068;15.408;2023-06-14T09:40:03;21.30;;;20.10;;
1995;SDS011;38556;47.068;15.408;2023-06-14T09:42:32;21.57;;;20.43;;
1995;SDS011;38556;47.068;15.408;2023-06-14T09:45:04;21.63;;;20.43;;
1995;SDS011;38556;47.068;15.408;2023-06-14T09:47:32;22.80;;;21.30;;
1995;SDS011;38556;47.068;15.408;2023-06-14T09:49:59;22.83;;;21.33;;
1995;SDS011;38556;47.068;15.408;2023-06-14T09:52:27;23.00;;;21.70;;
1995;SDS011;38556;47.068;15.408;2023-06-14T09:54:54;22.13;;;20.92;;
1995;SDS011;38556;47.068;15.408;2023-06-14T09:57:23;22.40;;;21.17;;
1995;SDS011;38556;47.068;15.408;2023-06-14T09:59:52;21.15;;;19.95;;
1995;SDS011;38556;47.068;15.408;2023-06-14T10:02:26;22.00;;;20.73;;
1995;SDS011;38556;47.068;15.408;2023-06-14T10:04:58;20.83;;;19.63;;
1995;SDS011;38556;47.068;15.408;2023-06-14T10:07:32;21.60;;;20.40;;
1995;SDS011;38556;47.068;15.408;2023-06-14T10:10:05;22.70;;;21.30;;
1995;SDS011;38556;47.068;15.408;2023-06-14T10:12:33;21.40;;;20.27;;
1995;SDS011;38556;47.068;15.408;2023-06-14T10:15:00;21.50;;;20.00;;
1995;SDS011;38556;47.068;15.408;2023-06-14T10:17:33;21.40;;;20.07;;
1995;SDS011;38556;47.068;15.408;2023-06-14T10:20:17;20.07;;;19.07;;
1995;SDS011;38556;47.068;15.408;2023-06-14T10:22:51;21.50;;;20.23;;
1995;SDS011;38556;47.068;15.408;2023-06-14T10:25:28;20.40;;;19.27;;
1995;SDS011;38556;47.068;15.408;2023-06-14T10:33:32;20.13;;;19.13;;
1995;SDS011;38556;47.068;15.408;2023-06-14T10:38:56;20.50;;;19.30;;
1995;SDS011;38556;47.068;15.408;2023-06-14T10:41:25;21.17;;;19.90;;
1995;SDS011;38556;47.068;15.408;2023-06-14T10:46:55;21.67;;;20.37;;
1995;SDS011;38556;47.068;15.408;2023-06-14T10:49:37;19.90;;;19.00;;
1995;SDS011;38556;47.068;15.408;2023-06-14T10:52:09;20.23;;;19.17;;
1995;SDS011;38556;47.068;15.408;2023-06-14T10:55:00;20.53;;;19.53;;
1995;SDS011;38556;47.068;15.408;2023-06-14T10:57:30;21.13;;;19.93;;
1995;SDS011;38556;47.068;15.408;2023-06-14T10:59:57;20.10;;;19.10;;
1995;SDS011;38556;47.068;15.408;2023-06-14T11:05:31;20.67;;;19.57;;
1995;SDS011;38556;47.068;15.408;2023-06-14T11:08:24;20.57;;;19.50;;
1995;SDS011;38556;47.068;15.408;2023-06-14T11:11:00;20.43;;;19.33;;
1995;SDS011;38556;47.068;15.408;2023-06-14T11:13:32;26.53;;;24.60;;
1995;SDS011;38556;47.068;15.408;2023-06-14T11:15:59;21.07;;;20.00;;
1995;SDS011;38556;47.068;15.408;2023-06-14T11:18:28;20.87;;;19.67;;
1995;SDS011;38556;47.068;15.408;2023-06-14T11:20:56;20.00;;;18.90;;
1995;SDS011;38556;47.068;15.408;2023-06-14T11:23:24;20.30;;;19.27;;
1995;SDS011;38556;47.068;15.408;2023-06-14T11:25:51;20.40;;;19.30;;
1995;SDS011;38556;47.068;15.408;2023-06-14T11:28:19;21.80;;;20.40;;
1995;SDS011;38556;47.068;15.408;2023-06-14T11:30:47;20.07;;;19.07;;
1995;SDS011;38556;47.068;15.408;2023-06-14T11:33:18;20.20;;;19.00;;
1995;SDS011;38556;47.068;15.408;2023-06-14T11:35:45;20.20;;;19.10;;
1995;SDS011;38556;47.068;15.408;2023-06-14T11:38:14;20.30;;;19.30;;
1995;SDS011;38556;47.068;15.408;2023-06-14T11:40:41;20.03;;;19.03;;
1995;SDS011;38556;47.068;15.408;2023-06-14T11:43:09;20.57;;;19.10;;
1995;SDS011;38556;47.068;15.408;2023-06-14T11:45:36;20.03;;;19.03;;
1995;SDS011;38556;47.068;15.408;2023-06-14T11:48:06;20.50;;;19.40;;
1995;SDS011;38556;47.068;15.408;2023-06-14T11:50:33;21.00;;;19.73;;
1995;SDS011;38556;47.068;15.408;2023-06-14T11:53:05;19.60;;;18.50;;
1995;SDS011;38556;47.068;15.408;2023-06-14T11:55:36;20.50;;;19.30;;
1995;SDS011;38556;47.068;15.408;2023-06-14T11:58:05;19.43;;;18.43;;
1995;SDS011;38556;47.068;15.408;2023-06-14T12:00:32;19.63;;;18.63;;
1995;SDS011;38556;47.068;15.408;2023-06-14T12:03:02;20.30;;;19.10;;
1995;SDS011;38556;47.068;15.408;2023-06-14T12:05:30;20.30;;;19.20;;
1995;SDS011;38556;47.068;15.408;2023-06-14T12:08:01;20.40;;;19.30;;
1995;SDS011;38556;47.068;15.408;2023-06-14T12:10:31;19.97;;;18.87;;
1995;SDS011;38556;47.068;15.408;2023-06-14T12:13:09;21.83;;;20.60;;
1995;SDS011;38556;47.068;15.408;2023-06-14T12:15:36;20.70;;;19.60;;
1995;SDS011;38556;47.068;15.408;2023-06-14T12:18:05;21.13;;;19.70;;
1995;SDS011;38556;47.068;15.408;2023-06-14T12:20:33;20.43;;;19.33;;
1995;SDS011;38556;47.068;15.408;2023-06-14T12:23:03;20.30;;;19.10;;
1995;SDS011;38556;47.068;15.408;2023-06-14T12:25:30;19.87;;;18.87;;
1995;SDS011;38556;47.068;15.408;2023-06-14T12:28:05;19.83;;;18.83;;
1995;SDS011;38556;47.068;15.408;2023-06-14T12:30:32;21.63;;;20.37;;
1995;SDS011;38556;47.068;15.408;2023-06-14T12:33:01;21.33;;;19.80;;
1995;SDS011;38556;47.068;15.408;2023-06-14T12:35:28;20.53;;;19.40;;
1995;SDS011;38556;47.068;15.408;2023-06-14T12:37:56;20.83;;;19.73;;
1995;SDS011;38556;47.068;15.408;2023-06-14T12:40:23;20.43;;;19.37;;
1995;SDS011;38556;47.068;15.408;2023-06-14T12:42:50;20.17;;;19.17;;
1995;SDS011;38556;47.068;15.408;2023-06-14T12:45:19;20.00;;;19.00;;
1995;SDS011;38556;47.068;15.408;2023-06-14T12:47:46;20.47;;;19.47;;
1995;SDS011;38556;47.068;15.408;2023-06-14T12:50:13;20.60;;;19.40;;
1995;SDS011;38556;47.068;15.408;2023-06-14T12:52:41;20.60;;;19.60;;
1995;SDS011;38556;47.068;15.408;2023-06-14T12:55:08;19.97;;;18.80;;
1995;SDS011;38556;47.068;15.408;2023-06-14T12:57:35;20.00;;;18.80;;
1995;SDS011;38556;47.068;15.408;2023-06-14T13:00:04;20.47;;;19.37;;
1995;SDS011;38556;47.068;15.408;2023-06-14T13:02:34;20.93;;;19.83;;
1995;SDS011;38556;47.068;15.408;2023-06-14T13:05:01;21.23;;;20.07;;
1995;SDS011;38556;47.068;15.408;2023-06-14T13:07:29;20.77;;;19.60;;
1995;SDS011;38556;47.068;15.408;2023-06-14T13:09:56;20.10;;;19.10;;
1995;SDS011;38556;47.068;15.408;2023-06-14T13:12:24;19.97;;;18.93;;
1995;SDS011;38556;47.068;15.408;2023-06-14T13:14:51;20.43;;;19.07;;
1995;SDS011;38556;47.068;15.408;2023-06-14T13:17:20;19.57;;;18.63;;
1995;SDS011;38556;47.068;15.408;2023-06-14T13:19:48;20.53;;;19.13;;
1995;SDS011;38556;47.068;15.408;2023-06-14T13:22:16;20.30;;;19.27;;
1995;SDS011;38556;47.068;15.408;2023-06-14T13:24:43;20.37;;;19.30;;
1995;SDS011;38556;47.068;15.408;2023-06-14T13:27:10;22.17;;;20.77;;
1995;SDS011;38556;47.068;15.408;2023-06-14T13:29:39;21.90;;;20.60;;
1995;SDS011;38556;47.068;15.408;2023-06-14T13:32:07;20.80;;;19.70;;
1995;SDS011;38556;47.068;15.408;2023-06-14T13:34:34;20.70;;;19.70;;
1995;SDS011;38556;47.068;15.408;2023-06-14T13:37:02;20.60;;;19.43;;
1995;SDS011;38556;47.068;15.408;2023-06-14T13:39:30;20.53;;;19.33;;
1995;SDS011;38556;47.068;15.408;2023-06-14T13:41:57;21.50;;;20.23;;
1995;SDS011;38556;47.068;15.408;2023-06-14T13:44:25;22.20;;;21.00;;
1995;SDS011;38556;47.068;15.408;2023-06-14T13:46:52;21.07;;;19.97;;
1995;SDS011;38556;47.068;15.408;2023-06-14T13:49:20;20.50;;;19.50;;
1995;SDS011;38556;47.068;15.408;2023-06-14T13:51:47;21.13;;;20.03;;
1995;SDS011;38556;47.068;15.408;2023-06-14T13:54:16;20.87;;;19.80;;
1995;SDS011;38556;47.068;15.408;2023-06-14T13:56:46;20.50;;;19.40;;
1995;SDS011;38556;47.068;15.408;2023-06-14T13:59:14;20.70;;;19.70;;
1995;SDS011;38556;47.068;15.408;2023-06-14T14:01:42;20.97;;;19.90;;
1995;SDS011;38556;47.068;15.408;2023-06-14T14:04:09;20.67;;;19.67;;
1995;SDS011;38556;47.068;15.408;2023-06-14T14:06:37;20.67;;;19.57;;
1995;SDS011;38556;47.068;15.408;2023-06-14T14:09:04;20.63;;;19.47;;
1995;SDS011;38556;47.068;15.408;2023-06-14T14:11:33;21.60;;;20.50;;
1995;SDS011;38556;47.068;15.408;2023-06-14T14:14:00;22.03;;;20.83;;
1995;SDS011;38556;47.068;15.408;2023-06-14T14:16:27;21.40;;;20.20;;
1995;SDS011;38556;47.068;15.408;2023-06-14T14:18:56;21.57;;;20.37;;
1995;SDS011;38556;47.068;15.408;2023-06-14T14:21:23;21.03;;;19.83;;
1995;SDS011;38556;47.068;15.408;2023-06-14T14:23:50;22.93;;;21.63;;
1995;SDS011;38556;47.068;15.408;2023-06-14T14:26:18;21.17;;;20.07;;
1995;SDS011;38556;47.068;15.408;2023-06-14T14:28:47;21.57;;;20.37;;
1995;SDS011;38556;47.068;15.408;2023-06-14T14:31:14;21.53;;;20.23;;
1995;SDS011;38556;47.068;15.408;2023-06-14T14:33:42;22.07;;;20.87;;
1995;SDS011;38556;47.068;15.408;2023-06-14T14:36:09;21.97;;;20.77;;
1995;SDS011;38556;47.068;15.408;2023-06-14T14:38:37;21.80;;;20.50;;
1995;SDS011;38556;47.068;15.408;2023-06-14T14:41:04;21.80;;;20.70;;
1995;SDS011;38556;47.068;15.408;2023-06-14T14:43:31;22.07;;;20.83;;